Nearby METAR Reports

 

KSJC - San Jose, California, USA
Distance from station: NE 9mi, 14km
Updated: Fri, 19-Apr-2019 9:53pm MDT
Mostly cloudy
Mostly cloudy
 Wind from N
Wind: N 10 mph , 17 km/h
Temperature: 55°F , 13°C
Dew Point: 54°F , 12°C
Humidity: 94%
Barometer: 29.90 inHg , 1012.5 hPa
Clouds: Mostly cloudy
Visibility: 10 miles , 16 km
Cloud details: Few Clouds 700 ft
Mostly cloudy 1100 ft
Mostly cloudy 8500 ft
2019/04/20 03:53 KSJC 200353Z 35009KT 10SM FEW007 BKN011 BKN085 13/12 A2990 RMK AO2 SLP123 T01330117
KNUQ - Moffett Nas/Mtn, California, USA
Distance from station: N 9mi, 14km
Updated: Fri, 19-Apr-2019 9:56pm MDT
Clear
Clear
 Wind from N
Wind: N 14 mph , 22 km/h
Temperature: 57°F , 14°C
Dew Point: 52°F , 11°C
Humidity: 82%
Barometer: 29.89 inHg , 1012.2 hPa
Clouds: Clear
Visibility: 10 miles , 16 km
2019/04/20 03:56 KNUQ 200356Z 35012KT 10SM CLR 14/11 A2989 RMK AO2 SLP125 T01390111 $
 
KPAO - Palo Alto, California, USA
Distance from station: NNW 14mi, 23km
Updated: Fri, 19-Apr-2019 9:47pm MDT
Mostly cloudy
Mostly cloudy
 Wind from NNW
Wind: NNW 12 mph , 19 km/h
Temperature: 54°F , 12°C
Dew Point: 52°F , 11°C
Humidity: 94%
Barometer: 29.89 inHg , 1012.2 hPa
Clouds: Mostly cloudy
Visibility: 10 miles , 16 km
Cloud details: Few Clouds 1500 ft
Mostly cloudy 12000 ft
2019/04/20 03:47 KPAO 200347Z 33010KT 10SM FEW015 BKN120 12/11 A2989
KRHV - San Jose/Reid, California, USA
Distance from station: ENE 12mi, 19km
Updated: Fri, 19-Apr-2019 9:47pm MDT
Mostly cloudy
Mostly cloudy
 Wind from WNW
Wind: WNW 9 mph , 15 km/h
Temperature: 59°F , 15°C
Dew Point: 52°F , 11°C
Humidity: 77%
Barometer: 29.89 inHg , 1012.2 hPa
Clouds: Mostly cloudy
Visibility: 10 miles , 16 km
Cloud details: Partly cloudy 5000 ft
Mostly cloudy 10000 ft
2019/04/20 03:47 KRHV 200347Z 30008KT 10SM SCT050 BKN100 15/11 A2989
 
KOAK - Oakland, California, USA
Distance from station: NNW 31mi, 50km
Updated: Fri, 19-Apr-2019 9:53pm MDT
Mostly cloudy
Mostly cloudy
 Wind from W
Wind: W 13 mph , 20 km/h
Temperature: 55°F , 13°C
Dew Point: 50°F , 10°C
Humidity: 82%
Barometer: 29.90 inHg , 1012.5 hPa
Clouds: Mostly cloudy
Visibility: 10 miles , 16 km
Cloud details: Mostly cloudy 600 ft
2019/04/20 03:53 KOAK 200353Z 26011KT 10SM BKN006 13/10 A2990 RMK AO2 SLP126 T01330100
KSQL - San Carlos Airpo, California, USA
Distance from station: NW 21mi, 34km
Updated: Fri, 19-Apr-2019 10:35pm MDT
Mostly cloudy
Mostly cloudy
 Wind from W
Wind: W 13 mph , 20 km/h, Gust: 17 mph , 28 km/h
Temperature: 54°F , 12°C
Dew Point: 50°F , 10°C
Humidity: 88%
Barometer: 29.91 inHg , 1012.9 hPa
Clouds: Mostly cloudy
Visibility: 10 miles , 16 km
Cloud details: Mostly cloudy 900 ft
2019/04/20 04:35 KSQL 200435Z AUTO 27011G15KT 10SM BKN009 12/10 A2991 RMK AO2
 
KSFO - San Francisco, California, USA
Distance from station: NW 30mi, 49km
Updated: Fri, 19-Apr-2019 9:56pm MDT
Overcast
Overcast
 Wind from WSW
Wind: WSW 13 mph , 20 km/h
Temperature: 54°F , 12°C
Dew Point: 50°F , 10°C
Humidity: 88%
Barometer: 29.90 inHg , 1012.5 hPa
Clouds: Overcast
Visibility: 10 miles , 16 km
Cloud details: Few Clouds 200 ft
Overcast 500 ft
2019/04/20 03:56 KSFO 200356Z 24011KT 10SM FEW002 OVC005 12/10 A2990 RMK AO2 SLP124 T01220100
KE16 - San Martin, California, USA
Distance from station: ESE 27mi, 43km
Updated: Fri, 19-Apr-2019 10:30pm MDT
Mostly cloudy
Mostly cloudy
 Wind from ESE
Wind: ESE 12 mph , 19 km/h
Temperature: 54°F , 12°C
Dew Point: 50°F , 10°C
Humidity: 88%
Barometer: 29.93 inHg , 1013.5 hPa
Clouds: Mostly cloudy
Visibility: 10 miles , 16 km
Cloud details: Partly cloudy 600 ft
Partly cloudy 3200 ft
Mostly cloudy 6000 ft
2019/04/20 04:30 KE16 200430Z AUTO 12010KT 10SM SCT006 SCT032 BKN060 12/10 A2993 RMK AO2
 
KWVI - Watsonville, California, USA
Distance from station: SSE 27mi, 44km
Updated: Fri, 19-Apr-2019 9:53pm MDT
Mist, Overcast
Mist, Overcast
 Wind from W
Wind: W 5 mph , 7 km/h
Temperature: 52°F , 11°C
Dew Point: 52°F , 11°C
Humidity: 100%
Barometer: 29.93 inHg , 1013.5 hPa
Summary: Mist
Clouds: Overcast
Visibility: 6 miles , 10 km
Cloud details: Overcast 300 ft
2019/04/20 03:53 KWVI 200353Z AUTO 26004KT 6SM BR OVC003 11/11 A2993 RMK AO2 SLP133 T01110106
KHAF - Half Moon Bay, California, USA
Distance from station: WNW 31mi, 50km
Updated: Fri, 19-Apr-2019 10:40pm MDT
Light rain, Overcast
Light rain, Overcast
 Wind from NW
Wind: NW 12 mph , 19 km/h
Temperature: 52°F , 11°C
Dew Point: 52°F , 11°C
Humidity: 100%
Barometer: 29.94 inHg , 1013.9 hPa
Summary: Light rain
Clouds: Overcast
Visibility: 1 1/4 miles , 2 km
Cloud details: Overcast 400 ft
2019/04/20 04:40 KHAF 200440Z AUTO 31010KT 1 1/4SM -RA OVC004 11/11 A2994 RMK AO2
 
KHWD - Hayward, California, USA
Distance from station: N 28mi, 44km
Updated: Fri, 19-Apr-2019 9:54pm MDT
Overcast
Overcast
 Wind from WNW
Wind: WNW 9 mph , 15 km/h
Temperature: 55°F , 13°C
Dew Point: 52°F , 11°C
Humidity: 88%
Barometer: 29.90 inHg , 1012.5 hPa
Clouds: Overcast
Visibility: 10 miles , 16 km
Cloud details: Overcast 800 ft
2019/04/20 03:54 KHWD 200354Z 30008KT 10SM OVC008 13/11 A2990 RMK AO2 CIG 007V011 SLP134 T01280106
KLVK - Livermore, California, USA
Distance from station: NNE 31mi, 51km
Updated: Fri, 19-Apr-2019 9:53pm MDT
Clear
Clear
 Wind from WNW
Wind: WNW 14 mph , 22 km/h
Temperature: 55°F , 13°C
Dew Point: 48°F , 9°C
Humidity: 77%
Barometer: 29.86 inHg , 1011.2 hPa
Clouds: Clear
Visibility: 10 miles , 16 km
2019/04/20 03:53 KLVK 200353Z 29012KT 10SM CLR 13/09 A2986 RMK AO2 SLP109 T01280094